Flight Track Log - Related Links

Times and Time Zones

All times are in EDT time to prevent confusion due to time zone crossing. See the EJA929 flight status page for this flight to view local times or setup timezone preferences in your user account.

Time Position Orientation Groundspeed Altitude Reporting Facility
EDT Latitude Longitude Course Direction KTS MPH feet Rate Location/Type
Sun 08:03:48 AM 35.8331 -83.9542 208° Southwest 203 234 2,800  Level Atlanta Center
Sun 08:04:48 AM 35.7933 -83.9183 144° Southeast 232 267 7,000 3,200 Climbing Atlanta Center
Sun 08:05:48 AM 35.7308 -83.9594 208° Southwest 185 213 9,200 2,050 Climbing Atlanta Center
Sun 08:06:48 AM 35.6578 -84.0031 206° Southwest 237 273 11,100 1,900 Climbing Atlanta Center
Sun 08:07:48 AM 35.5806 -84.0642 213° Southwest 294 338 13,000 1,900 Climbing Atlanta Center
Sun 08:08:48 AM 35.5075 -84.1408 221° Southwest 325 374 14,900 1,900 Climbing Atlanta Center
Sun 08:09:00 AM 35.1823 -84.3173 208° Southwest  Level FlightAware Approximate
Sun 08:09:48 AM 35.4344 -84.2172 220° Southwest 342 394 16,800  Level Atlanta Center
Sun 08:10:48 AM 35.3633 -84.2986 223° Southwest 352 405 18,500 1,550 Climbing Atlanta Center
Sun 08:11:48 AM 35.2881 -84.3797 221° Southwest 357 411 19,900 1,250 Climbing Atlanta Center
Sun 08:12:48 AM 35.1897 -84.4250 201° Southwest 368 423 21,000 1,150 Climbing Atlanta Center
Sun 08:13:48 AM 35.0853 -84.4653 198° South 379 436 22,200 1,400 Climbing Atlanta Center
Sun 08:14:48 AM 34.9831 -84.5078 199° South 391 450 23,800 1,500 Climbing Atlanta Center
Sun 08:15:48 AM 34.8742 -84.5528 199° South 397 457 25,200 1,300 Climbing Atlanta Center
Sun 08:16:48 AM 34.7697 -84.5925 197° South 402 463 26,400 950 Climbing Atlanta Center
Sun 08:17:48 AM 34.6756 -84.6322 199° South 402 463 27,100 850 Climbing Atlanta Center
Sun 08:18:48 AM 34.5669 -84.6744 198° South 407 468 28,100 950 Climbing Atlanta Center
Sun 08:19:48 AM 34.4561 -84.7139 196° South 407 468 29,000 950 Climbing Atlanta Center
Sun 08:20:48 AM 34.3411 -84.7533 196° South 417 480 30,000 1,050 Climbing Atlanta Center
Sun 08:21:48 AM 34.2281 -84.7950 197° South 422 486 31,100 1,050 Climbing Atlanta Center
Sun 08:22:48 AM 34.1111 -84.8342 195° South 429 494 32,100 1,100 Climbing Atlanta Center
Sun 08:23:48 AM 34.0000 -84.8808 199° South 429 494 33,300 950 Climbing Atlanta Center
Sun 08:24:48 AM 33.8831 -84.9222 196° South 435 501 34,000 350 Climbing Atlanta Center
Sun 08:25:48 AM 33.7553 -84.9658 196° South 441 507 34,000  Level Atlanta Center
Sun 08:26:48 AM 33.6361 -85.0044 195° South 441 507 34,000  Level Atlanta Center
Sun 08:27:48 AM 33.5147 -85.0381 193° South 440 506 34,000  Level Atlanta Center
Sun 08:28:48 AM 33.3975 -85.0639 190° South 440 506 34,000  Level Atlanta Center
Sun 08:29:48 AM 33.2742 -85.0972 193° South 440 506 34,000  Level Atlanta Center
Sun 08:30:48 AM 33.1592 -85.1231 191° South 435 501 34,000  Level Atlanta Center
Sun 08:31:48 AM 33.0608 -85.1492 193° South 435 501 34,000 -300 Level Atlanta Center
Sun 08:32:48 AM 32.9208 -85.1747 189° South 435 501 33,400 -900 Descending Atlanta Center
Sun 08:33:48 AM 32.8014 -85.2053 192° South 424 488 32,200 -1,250 Descending Atlanta Center
Sun 08:34:48 AM 32.6822 -85.2358 192° South 437 503 30,900 -1,057 Descending Atlanta Center
Sun 08:37:18 AM 32.3772 -85.3081 191° South 469 540 28,500 -943 Descending Jacksonville Center
Sun 08:38:18 AM 32.2556 -85.3394 192° South 464 534 27,600 -950 Descending Jacksonville Center
Sun 08:39:18 AM 32.1319 -85.3703 192° South 464 534 26,600 -950 Descending Jacksonville Center
Sun 08:40:18 AM 32.0061 -85.4014 192° South 459 528 25,700 -950 Descending Jacksonville Center
Sun 08:41:18 AM 31.8800 -85.4344 193° South 459 528 24,700 -850 Descending Jacksonville Center
Sun 08:42:18 AM 31.7542 -85.4628 191° South 464 534 24,000 -350 Descending Jacksonville Center
Sun 08:43:18 AM 31.6367 -85.4914 192° South 453 521 24,000 -1,000 Level Jacksonville Center
Sun 08:44:18 AM 31.5192 -85.5197 192° South 448 516 22,000 -2,350 Descending Jacksonville Center
Sun 08:45:18 AM 31.4058 -85.5506 193° South 435 501 19,300 -2,800 Descending Jacksonville Center
Sun 08:46:18 AM 31.2906 -85.5742 190° South 409 471 16,400 -2,950 Descending Jacksonville Center
Sun 08:47:18 AM 31.1961 -85.6031 195° South 376 433 13,400 -2,800 Descending Jacksonville Center
Sun 08:48:18 AM 31.1261 -85.6469 208° Southwest 313 360 10,800 -2,250 Descending Jacksonville Center
Sun 08:49:18 AM 31.0644 -85.7011 217° Southwest 300 345 8,900 -1,950 Descending Jacksonville Center
Sun 08:50:18 AM 31.0092 -85.7503 217° Southwest 275 316 6,900 -1,850 Descending Jacksonville Center
Sun 08:51:18 AM 30.9517 -85.7969 215° Southwest 264 304 5,200 -1,450 Descending Jacksonville Center
Sun 08:52:18 AM 30.8961 -85.8436 216° Southwest 258 297 4,000 -1,050 Descending Jacksonville Center
Sun 08:53:18 AM 30.8364 -85.8997 219° Southwest 258 297 3,100 -500 Descending Jacksonville Center
Sun 08:54:18 AM 30.7733 -85.9269 200° South 258 297 3,000 -50 Descending Jacksonville Center
Sun 08:55:18 AM 30.7044 -85.9247 178° South 244 281 3,000  Level Jacksonville Center
Sun 08:56:18 AM 30.6378 -85.9200 177° South 244 281 3,000  Level Jacksonville Center
Sun 08:57:18 AM 30.5736 -85.8939 161° South 244 281 3,000 -50 Level Jacksonville Center
Sun 08:58:18 AM 30.5136 -85.8631 156° South 239 275 2,900 -450 Descending Jacksonville Center
Sun 08:59:18 AM 30.4661 -85.8425 160° South 216 249 2,100 -750 Descending Jacksonville Center
Sun 09:00:18 AM 30.4289 -85.8267 160° South 178 205 1,400 -650 Descending Jacksonville Center
Sun 09:01:18 AM 30.3958 -85.8114 158° South 147 169 800 -600 Descending Jacksonville Center
Sun 09:02:18 AM 30.3692 -85.8008 161° South 133 153 200 -600 Descending Jacksonville Center

Login

Don't have an account? Register now (free) for customized features, flight alerts, and more!